createdAt,value
2018-08-09T00:00:17.627Z,53.26
2018-08-09T00:01:17.584Z,53.23
2018-08-09T00:02:17.335Z,52.84
2018-08-09T00:03:17.355Z,53.13
2018-08-09T00:04:17.381Z,53.74
2018-08-09T00:05:17.395Z,53.49
2018-08-09T00:06:17.359Z,54
2018-08-09T00:07:17.325Z,54.11
2018-08-09T00:08:17.327Z,53.69
2018-08-09T00:09:17.337Z,53.65
2018-08-09T00:10:17.489Z,54.23
2018-08-09T00:11:17.345Z,54.2
2018-08-09T00:12:17.402Z,54.18
2018-08-09T00:13:17.435Z,53.93
2018-08-09T00:14:17.464Z,53.93
2018-08-09T00:15:17.355Z,53.87
2018-08-09T00:16:17.373Z,53.5
2018-08-09T00:17:17.410Z,53.56
2018-08-09T00:18:17.388Z,53.6
2018-08-09T00:19:17.606Z,54.67
2018-08-09T00:20:17.479Z,54.2
2018-08-09T00:21:17.411Z,54
2018-08-09T00:22:17.434Z,54.12
2018-08-09T00:23:17.375Z,54.03
2018-08-09T00:24:17.533Z,53.68
2018-08-09T00:25:17.360Z,53.92
2018-08-09T00:26:17.580Z,54.35
2018-08-09T00:27:17.384Z,54.43
2018-08-09T00:28:17.407Z,54.13
2018-08-09T00:29:17.531Z,53.78
2018-08-09T00:30:17.366Z,53.73
2018-08-09T00:31:17.513Z,53.38
2018-08-09T00:32:17.436Z,53.57
2018-08-09T00:33:17.529Z,53.27
2018-08-09T00:34:17.392Z,53.49
2018-08-09T00:35:17.392Z,53.39
2018-08-09T00:36:17.401Z,53.4
2018-08-09T00:37:17.592Z,53.3
2018-08-09T00:38:17.875Z,53.28
2018-08-09T00:39:17.554Z,53.44
2018-08-09T00:40:17.469Z,53.57
2018-08-09T00:41:17.395Z,53.29
2018-08-09T00:42:17.508Z,53.1
2018-08-09T00:43:17.379Z,53.4
2018-08-09T00:44:17.402Z,53.35
2018-08-09T00:45:17.381Z,52.96
2018-08-09T00:46:17.454Z,52.98
2018-08-09T00:47:17.406Z,52.94
2018-08-09T00:48:17.424Z,53.29
2018-08-09T00:49:17.391Z,53.17
2018-08-09T00:50:17.883Z,53.18
2018-08-09T00:51:17.436Z,53.44
2018-08-09T00:52:17.665Z,53.52
2018-08-09T00:53:17.563Z,53.66
2018-08-09T00:54:17.410Z,53.4
2018-08-09T00:55:17.547Z,53.3
2018-08-09T00:56:17.430Z,53.39
2018-08-09T00:57:17.429Z,53.13
2018-08-09T00:58:17.563Z,53.19
2018-08-09T00:59:17.434Z,53.14
2018-08-09T01:00:17.753Z,53.28
2018-08-09T01:01:17.420Z,52.91
2018-08-09T01:02:17.402Z,52.98
2018-08-09T01:03:17.486Z,53.17
2018-08-09T01:04:17.715Z,53.14
2018-08-09T01:05:17.408Z,52.9
2018-08-09T01:06:17.454Z,53.42
2018-08-09T01:07:17.428Z,53.43
2018-08-09T01:08:17.726Z,53.15
2018-08-09T01:09:17.429Z,52.97
2018-08-09T01:10:17.576Z,53.38
2018-08-09T01:11:17.443Z,53.07
2018-08-09T01:12:17.515Z,52.99
2018-08-09T01:13:17.438Z,53.3
2018-08-09T01:14:17.409Z,53.49
2018-08-09T01:15:17.507Z,53.58
2018-08-09T01:16:17.442Z,53.48
2018-08-09T01:17:17.456Z,53.13
2018-08-09T01:18:17.434Z,53.48
2018-08-09T01:19:17.444Z,53.09
2018-08-09T01:20:17.429Z,52.97
2018-08-09T01:21:17.431Z,53.2
2018-08-09T01:22:17.451Z,53.17
2018-08-09T01:23:17.456Z,53.15
2018-08-09T01:24:17.433Z,53.16
2018-08-09T01:25:17.612Z,52.97
2018-08-09T01:26:17.446Z,52.89
2018-08-09T01:27:17.440Z,53.15
2018-08-09T01:28:17.448Z,53.37
2018-08-09T01:29:17.433Z,53.04
2018-08-09T01:30:17.460Z,52.96
2018-08-09T01:31:17.590Z,52.95
2018-08-09T01:32:17.473Z,53.08
2018-08-09T01:33:17.446Z,53.08
2018-08-09T01:34:17.599Z,53
2018-08-09T01:35:17.818Z,52.87
2018-08-09T01:36:18.114Z,53.13
2018-08-09T01:37:17.524Z,52.85
2018-08-09T01:38:17.474Z,53.16
2018-08-09T01:39:17.448Z,53.07
2018-08-09T01:40:17.452Z,52.92
2018-08-09T01:41:17.561Z,52.84
2018-08-09T01:42:17.454Z,52.69
2018-08-09T01:43:17.637Z,52.99
2018-08-09T01:44:17.480Z,52.94
2018-08-09T01:45:17.490Z,52.9
2018-08-09T01:46:17.883Z,52.92
2018-08-09T01:47:17.498Z,52.91
2018-08-09T01:48:17.791Z,53.04
2018-08-09T01:49:17.500Z,53.21
2018-08-09T01:50:17.637Z,53.06
2018-08-09T01:51:17.727Z,52.78
2018-08-09T01:52:17.509Z,53.17
2018-08-09T01:53:17.490Z,52.78
2018-08-09T01:54:17.483Z,52.94
2018-08-09T01:55:18.140Z,53.59
2018-08-09T01:56:17.621Z,53.43
2018-08-09T01:57:17.480Z,53.65
2018-08-09T01:58:17.491Z,53.68
2018-08-09T01:59:17.491Z,53.66
2018-08-09T02:00:17.498Z,53.35
2018-08-09T02:01:17.587Z,54.09
2018-08-09T02:02:17.483Z,53.88
2018-08-09T02:03:17.544Z,53.85
2018-08-09T02:04:17.528Z,54.25
2018-08-09T02:05:17.506Z,54.38
2018-08-09T02:06:17.721Z,54.52
2018-08-09T02:07:17.515Z,54.5
2018-08-09T02:08:17.613Z,54.19
2018-08-09T02:09:17.871Z,54.53
2018-08-09T02:10:17.592Z,54.77
2018-08-09T02:11:17.544Z,54.85
2018-08-09T02:12:17.501Z,54.95
2018-08-09T02:13:17.505Z,55.5
2018-08-09T02:14:17.510Z,55.71
2018-08-09T02:15:17.957Z,55.78
2018-08-09T02:16:17.875Z,56.01
2018-08-09T02:17:17.534Z,56.36
2018-08-09T02:18:17.589Z,56.71
2018-08-09T02:19:17.540Z,56.85
2018-08-09T02:20:17.869Z,56.75
2018-08-09T02:21:17.516Z,56.75
2018-08-09T02:22:17.629Z,56.38
2018-08-09T02:23:17.512Z,56.68
2018-08-09T02:24:17.608Z,56.18
2018-08-09T02:25:17.540Z,56.49
2018-08-09T02:26:17.918Z,56.6
2018-08-09T02:27:17.855Z,56.35
2018-08-09T02:28:17.670Z,56.4
2018-08-09T02:29:17.630Z,55.92
2018-08-09T02:30:17.551Z,56.77
2018-08-09T02:31:17.580Z,56.72
2018-08-09T02:32:17.524Z,56.8
2018-08-09T02:33:17.942Z,56.31
2018-08-09T02:34:17.530Z,56.8
2018-08-09T02:35:17.542Z,56.56
2018-08-09T02:36:17.893Z,56.02
2018-08-09T02:37:17.801Z,56.01
2018-08-09T02:38:17.541Z,55.92
2018-08-09T02:39:17.535Z,56.5
2018-08-09T02:40:17.543Z,55.94
2018-08-09T02:41:17.546Z,57.02
2018-08-09T02:42:17.549Z,56.92
2018-08-09T02:43:17.534Z,57.31
2018-08-09T02:44:17.526Z,57.28
2018-08-09T02:45:17.530Z,57.34
2018-08-09T02:46:17.636Z,57.11
2018-08-09T02:47:17.564Z,57.31
2018-08-09T02:48:17.549Z,57.24
2018-08-09T02:49:17.551Z,57.28
2018-08-09T02:50:17.790Z,57.38
2018-08-09T02:51:17.557Z,57.31
2018-08-09T02:52:17.647Z,57.34
2018-08-09T02:53:17.579Z,57.6
2018-08-09T02:54:17.588Z,57.48
2018-08-09T02:55:17.954Z,57.71
2018-08-09T02:56:17.760Z,57.67
2018-08-09T02:57:17.627Z,57.22
2018-08-09T02:58:17.563Z,57.48
2018-08-09T02:59:17.721Z,57.57
2018-08-09T03:00:17.915Z,57.6
2018-08-09T03:01:17.564Z,57.66
2018-08-09T03:02:17.553Z,57.6
2018-08-09T03:03:17.555Z,57.72
2018-08-09T03:04:17.628Z,57.47
2018-08-09T03:05:17.605Z,57.61
2018-08-09T03:06:17.781Z,57.79
2018-08-09T03:07:17.963Z,57.81
2018-08-09T03:08:17.575Z,57.86
2018-08-09T03:09:17.996Z,57.96
2018-08-09T03:10:17.978Z,57.69
2018-08-09T03:11:17.773Z,57.95
2018-08-09T03:12:17.690Z,57.66
2018-08-09T03:13:17.603Z,58.02
2018-08-09T03:14:17.598Z,57.93
2018-08-09T03:15:17.662Z,58.08
2018-08-09T03:16:17.892Z,58.04
2018-08-09T03:17:17.640Z,58.03
2018-08-09T03:18:17.707Z,58.47
2018-08-09T03:19:17.711Z,58.78
2018-08-09T03:20:18.050Z,58.51
2018-08-09T03:21:17.613Z,58.65
2018-08-09T03:22:17.576Z,58.47
2018-08-09T03:23:17.664Z,58.62
2018-08-09T03:24:17.954Z,58.85
2018-08-09T03:25:17.637Z,58.65
2018-08-09T03:26:17.702Z,58.87
2018-08-09T03:27:17.664Z,58.95
2018-08-09T03:28:17.710Z,59.5
2018-08-09T03:29:17.607Z,59.3
2018-08-09T03:30:17.630Z,59.51
2018-08-09T03:31:17.676Z,59.74
2018-08-09T03:32:17.638Z,60.7
2018-08-09T03:33:17.755Z,60.48
2018-08-09T03:34:17.609Z,60.39
2018-08-09T03:35:17.606Z,60.48
2018-08-09T03:36:17.664Z,60.64
2018-08-09T03:37:17.618Z,60.47
2018-08-09T03:38:17.703Z,61.1
2018-08-09T03:39:17.608Z,61.25
2018-08-09T03:40:17.797Z,60.77
2018-08-09T03:41:17.621Z,60.91
2018-08-09T03:42:17.707Z,60.7
2018-08-09T03:43:17.760Z,60.5
2018-08-09T03:44:17.616Z,60.4
2018-08-09T03:45:17.615Z,60.06
2018-08-09T03:46:17.821Z,60.61
2018-08-09T03:47:17.628Z,60.3
2018-08-09T03:48:17.743Z,60.46
2018-08-09T03:49:17.629Z,60.56
2018-08-09T03:50:17.680Z,60.41
2018-08-09T03:51:17.737Z,60.44
2018-08-09T03:52:17.645Z,61.38
2018-08-09T03:53:17.950Z,60.89
2018-08-09T03:54:17.638Z,61.16
2018-08-09T03:55:17.641Z,61.35
2018-08-09T03:56:17.808Z,61.14
2018-08-09T03:57:17.655Z,60.74
2018-08-09T03:58:17.716Z,60.75
2018-08-09T03:59:17.632Z,60.82
2018-08-09T04:00:17.659Z,60.73
2018-08-09T04:01:17.664Z,61.37
2018-08-09T04:02:17.808Z,61.92
2018-08-09T04:03:17.642Z,61.67
2018-08-09T04:04:17.644Z,61.39
2018-08-09T04:05:17.640Z,61.18
2018-08-09T04:06:17.669Z,60.64
2018-08-09T04:07:17.635Z,60.83
2018-08-09T04:08:17.655Z,61.22
2018-08-09T04:09:17.649Z,61.24
2018-08-09T04:10:17.671Z,61.22
2018-08-09T04:11:17.673Z,61.77
2018-08-09T04:12:17.836Z,61.84
2018-08-09T04:13:17.699Z,62.08
2018-08-09T04:14:17.671Z,61.84
2018-08-09T04:15:17.763Z,61.95
2018-08-09T04:16:17.652Z,61.77
2018-08-09T04:17:17.673Z,61.35
2018-08-09T04:18:17.641Z,61.23
2018-08-09T04:19:17.717Z,61.35
2018-08-09T04:20:17.663Z,61.13
2018-08-09T04:21:17.664Z,61.06
2018-08-09T04:22:17.700Z,61.26
2018-08-09T04:23:17.764Z,61.09
2018-08-09T04:24:17.771Z,61.15
2018-08-09T04:25:17.683Z,60.92
2018-08-09T04:26:17.687Z,60.58
2018-08-09T04:27:17.671Z,60.84
2018-08-09T04:28:17.689Z,60.95
2018-08-09T04:29:17.884Z,60.73
2018-08-09T04:30:18.008Z,61.05
2018-08-09T04:31:17.712Z,60.86
2018-08-09T04:32:17.707Z,60.54
2018-08-09T04:33:17.693Z,60.88
2018-08-09T04:34:17.715Z,61.27
2018-08-09T04:35:17.710Z,60.71
2018-08-09T04:36:17.953Z,60.45
2018-08-09T04:37:17.712Z,60.61
2018-08-09T04:38:17.695Z,60.89
2018-08-09T04:39:17.689Z,60.44
2018-08-09T04:40:17.719Z,61.07
2018-08-09T04:41:18.045Z,61.04
2018-08-09T04:42:17.698Z,60.84
2018-08-09T04:43:17.681Z,60.6
2018-08-09T04:44:17.704Z,60.42
2018-08-09T04:45:17.747Z,61.18
2018-08-09T04:46:17.720Z,60.68
2018-08-09T04:47:17.830Z,61.04
2018-08-09T04:48:17.711Z,60.77
2018-08-09T04:49:17.932Z,60.45
2018-08-09T04:50:17.680Z,60.69
2018-08-09T04:51:17.702Z,61.36
2018-08-09T04:52:17.891Z,60.93
2018-08-09T04:53:18.046Z,61.37
2018-08-09T04:54:17.692Z,60.98
2018-08-09T04:55:17.761Z,60.72
2018-08-09T04:56:17.683Z,61.64
2018-08-09T04:57:17.688Z,61.35
2018-08-09T04:58:17.862Z,61.96
2018-08-09T04:59:17.718Z,62.47
2018-08-09T05:00:17.843Z,62.5
2018-08-09T05:01:17.708Z,62.28
2018-08-09T05:02:17.715Z,62.71
2018-08-09T05:03:17.725Z,62.97
2018-08-09T05:04:17.940Z,63.02
2018-08-09T05:05:17.720Z,62.39
2018-08-09T05:06:17.760Z,62.38
2018-08-09T05:07:17.946Z,62.68
2018-08-09T05:08:17.718Z,62.93
2018-08-09T05:09:17.714Z,62.92
2018-08-09T05:10:17.754Z,63.65
2018-08-09T05:11:17.719Z,63.17
2018-08-09T05:12:17.733Z,63.37
2018-08-09T05:13:18.083Z,62.79
2018-08-09T05:14:17.730Z,63.49
2018-08-09T05:15:17.724Z,62.8
2018-08-09T05:16:17.829Z,62.43
2018-08-09T05:17:17.779Z,63.43
2018-08-09T05:18:17.748Z,63
2018-08-09T05:19:17.757Z,62.8
2018-08-09T05:20:17.752Z,62.88
2018-08-09T05:21:17.738Z,63.16
2018-08-09T05:22:17.834Z,62.81
2018-08-09T05:23:17.798Z,63.26
2018-08-09T05:24:17.764Z,63.11
2018-08-09T05:25:17.742Z,63.16
2018-08-09T05:26:17.793Z,63.21
2018-08-09T05:27:17.755Z,62.77
2018-08-09T05:28:17.749Z,62.71
2018-08-09T05:29:17.739Z,63.29
2018-08-09T05:30:17.761Z,63.52
2018-08-09T05:31:17.750Z,63.37
2018-08-09T05:32:17.802Z,63.17
2018-08-09T05:33:17.750Z,63.63
2018-08-09T05:34:17.838Z,63.39
2018-08-09T05:35:18.152Z,63.15
2018-08-09T05:36:17.980Z,63.47
2018-08-09T05:37:18.075Z,63.16
2018-08-09T05:38:17.811Z,62.75
2018-08-09T05:39:17.877Z,62.9
2018-08-09T05:40:17.927Z,62.62
2018-08-09T05:41:17.964Z,62.76
2018-08-09T05:42:17.813Z,62.51
2018-08-09T05:43:17.829Z,62.31
2018-08-09T05:44:17.821Z,62.17
2018-08-09T05:45:17.832Z,61.9
2018-08-09T05:46:17.937Z,61.65
2018-08-09T05:47:17.901Z,61.59
2018-08-09T05:48:17.941Z,61.35
2018-08-09T05:49:17.893Z,61.15
2018-08-09T05:50:17.964Z,61.21
2018-08-09T05:51:18.134Z,61
2018-08-09T05:52:17.856Z,60.79
2018-08-09T05:53:22.157Z,61.35
2018-08-09T05:54:17.772Z,61.22
2018-08-09T05:55:17.813Z,60.93
2018-08-09T05:56:17.920Z,60.72
2018-08-09T05:57:21.635Z,60.78
2018-08-09T05:58:19.784Z,60.94
2018-08-09T05:59:17.923Z,61.15
2018-08-09T06:00:17.838Z,61.21
2018-08-09T06:01:17.825Z,60.77
2018-08-09T06:02:17.870Z,60.64
2018-08-09T06:03:17.839Z,60.44
2018-08-09T06:04:18.013Z,60.39
2018-08-09T06:05:17.865Z,60.57
2018-08-09T06:06:17.789Z,60.51
2018-08-09T06:07:18.174Z,60.82
2018-08-09T06:08:17.977Z,60.48
2018-08-09T06:09:17.897Z,60.51
2018-08-09T06:10:18.071Z,60.32
2018-08-09T06:11:17.797Z,60.57
2018-08-09T06:12:17.817Z,60.39
2018-08-09T06:13:17.924Z,60.36
2018-08-09T06:14:17.941Z,60.1
2018-08-09T06:15:17.985Z,60.34
2018-08-09T06:16:18.114Z,60.49
2018-08-09T06:17:17.819Z,60.49
2018-08-09T06:18:17.828Z,60.62
2018-08-09T06:19:17.820Z,60.22
2018-08-09T06:20:17.888Z,60.34
2018-08-09T06:21:17.950Z,60.33
2018-08-09T06:22:17.900Z,60
2018-08-09T06:23:17.917Z,60.4
2018-08-09T06:24:17.858Z,60.16
2018-08-09T06:25:17.881Z,60.16
2018-08-09T06:26:17.885Z,59.92
2018-08-09T06:27:17.847Z,59.73
2018-08-09T06:28:17.869Z,59.73
2018-08-09T06:29:17.837Z,59.77
2018-08-09T06:30:17.950Z,59.63
2018-08-09T06:31:17.828Z,59.38
2018-08-09T06:32:17.845Z,59.33
2018-08-09T06:33:17.845Z,59.36
2018-08-09T06:34:17.861Z,59.21
2018-08-09T06:35:17.839Z,58.98
2018-08-09T06:36:17.861Z,58.55
2018-08-09T06:37:17.859Z,58.29
2018-08-09T06:38:17.873Z,58.11
2018-08-09T06:39:17.866Z,57.66
2018-08-09T06:40:17.847Z,57.59
2018-08-09T06:41:17.856Z,57.34
2018-08-09T06:42:17.830Z,57.32
2018-08-09T06:43:17.881Z,57.15
2018-08-09T06:44:17.843Z,56.99
2018-08-09T06:45:17.903Z,56.98
2018-08-09T06:46:17.967Z,56.88
2018-08-09T06:47:17.833Z,56.96
2018-08-09T06:48:17.933Z,56.7
2018-08-09T06:49:17.892Z,56.73
2018-08-09T06:50:17.979Z,56.76
2018-08-09T06:51:17.906Z,56.73
2018-08-09T06:52:17.978Z,56.85
2018-08-09T06:53:17.896Z,56.74
2018-08-09T06:54:17.927Z,56.78
2018-08-09T06:55:17.862Z,56.49
2018-08-09T06:56:18.670Z,56.51
2018-08-09T06:57:18.189Z,56.51
2018-08-09T06:58:18.019Z,56.43
2018-08-09T06:59:17.914Z,56.59
2018-08-09T07:00:17.881Z,56.34
2018-08-09T07:01:17.898Z,56.49
2018-08-09T07:02:17.928Z,56.46
2018-08-09T07:03:17.873Z,56.37
2018-08-09T07:04:17.886Z,56.26
2018-08-09T07:05:17.952Z,56.2
2018-08-09T07:06:18.040Z,56.04
2018-08-09T07:07:18.053Z,56.06
2018-08-09T07:08:17.900Z,56.07
2018-08-09T07:09:18.110Z,55.83
2018-08-09T07:10:17.950Z,55.9
2018-08-09T07:11:18.298Z,55.87
2018-08-09T07:12:18.027Z,55.75
2018-08-09T07:13:17.879Z,55.69
2018-08-09T07:14:17.929Z,55.75
2018-08-09T07:15:18.146Z,55.66
2018-08-09T07:16:18.089Z,55.65
2018-08-09T07:17:17.881Z,55.52
2018-08-09T07:18:18.005Z,55.57
2018-08-09T07:19:17.919Z,55.44
2018-08-09T07:20:17.933Z,55.35
2018-08-09T07:21:17.956Z,55.32
2018-08-09T07:22:17.889Z,55.32
2018-08-09T07:23:17.924Z,55.21
2018-08-09T07:24:17.928Z,54.94
2018-08-09T07:25:17.921Z,54.95
2018-08-09T07:26:17.934Z,55.05
2018-08-09T07:27:17.904Z,54.94
2018-08-09T07:28:17.983Z,54.97
2018-08-09T07:29:18.105Z,55.09
2018-08-09T07:30:17.967Z,54.78
2018-08-09T07:31:18.004Z,54.89
2018-08-09T07:32:18.039Z,54.8
2018-08-09T07:33:17.927Z,54.83
2018-08-09T07:34:17.955Z,54.89
2018-08-09T07:35:17.932Z,55.02
2018-08-09T07:36:17.940Z,54.8
2018-08-09T07:37:18.254Z,54.56
2018-08-09T07:38:18.184Z,54.67
2018-08-09T07:39:18.031Z,54.61
2018-08-09T07:40:17.978Z,54.16
2018-08-09T07:41:18.039Z,54.33
2018-08-09T07:42:17.936Z,54.01
2018-08-09T07:43:18.072Z,53.93
2018-08-09T07:44:17.940Z,53.81
2018-08-09T07:45:17.908Z,54
2018-08-09T07:46:17.920Z,54.01
2018-08-09T07:47:17.929Z,53.81
2018-08-09T07:48:17.962Z,53.83
2018-08-09T07:49:17.927Z,53.56
2018-08-09T07:50:17.929Z,53.68
2018-08-09T07:51:17.931Z,53.71
2018-08-09T07:52:17.932Z,53.6
2018-08-09T07:53:17.917Z,53.58
2018-08-09T07:54:17.961Z,53.4
2018-08-09T07:55:17.925Z,53.78
2018-08-09T07:56:17.968Z,53.31
2018-08-09T07:57:17.968Z,53.28
2018-08-09T07:58:17.951Z,53.32
2018-08-09T07:59:17.952Z,52.92
2018-08-09T08:00:17.954Z,53.52
2018-08-09T08:01:17.966Z,53.1
2018-08-09T08:02:17.981Z,53.42
2018-08-09T08:03:17.938Z,53.21
2018-08-09T08:04:18.027Z,52.91
2018-08-09T08:05:17.997Z,52.81
2018-08-09T08:06:17.957Z,52.87
2018-08-09T08:07:17.967Z,52.59
2018-08-09T08:08:18.002Z,52.55
2018-08-09T08:09:18.000Z,52.49
2018-08-09T08:10:17.946Z,52.83
2018-08-09T08:11:18.128Z,52.36
2018-08-09T08:12:17.995Z,52.37
2018-08-09T08:13:18.105Z,52.31
2018-08-09T08:14:17.959Z,52.37
2018-08-09T08:15:17.999Z,52.04
2018-08-09T08:16:17.957Z,52.19
2018-08-09T08:17:17.955Z,51.77
2018-08-09T08:18:18.023Z,52.06
2018-08-09T08:19:17.978Z,51.81
2018-08-09T08:20:18.021Z,51.96
2018-08-09T08:21:17.984Z,52.04
2018-08-09T08:22:18.020Z,51.91
2018-08-09T08:23:18.013Z,51.9
2018-08-09T08:24:18.016Z,51.55
2018-08-09T08:25:17.970Z,51.73
2018-08-09T08:26:17.974Z,51.66
2018-08-09T08:27:18.016Z,51.52
2018-08-09T08:28:18.081Z,51.3
2018-08-09T08:29:18.064Z,51.41
2018-08-09T08:30:18.091Z,51.28
2018-08-09T08:31:17.974Z,51.07
2018-08-09T08:32:17.962Z,51.12
2018-08-09T08:33:17.973Z,51.4
2018-08-09T08:34:18.121Z,51.46
2018-08-09T08:35:17.979Z,51.28
2018-08-09T08:36:18.046Z,51.06
2018-08-09T08:37:18.011Z,51.41
2018-08-09T08:38:17.991Z,51.07
2018-08-09T08:39:18.018Z,51.14
2018-08-09T08:40:17.975Z,50.98
2018-08-09T08:41:18.133Z,50.87
2018-08-09T08:42:18.306Z,50.89
2018-08-09T08:43:18.194Z,50.78
2018-08-09T08:44:18.224Z,50.65
2018-08-09T08:45:17.974Z,50.81
2018-08-09T08:46:17.977Z,50.54
2018-08-09T08:47:18.190Z,50.23
2018-08-09T08:48:18.061Z,50.04
2018-08-09T08:49:18.054Z,50.24
2018-08-09T08:50:17.991Z,49.9
2018-08-09T08:51:17.996Z,49.53
2018-08-09T08:52:18.009Z,49.49
2018-08-09T08:53:18.109Z,49.53
2018-08-09T08:54:18.090Z,49.57
2018-08-09T08:55:18.031Z,49.63
2018-08-09T08:56:18.034Z,49.73
2018-08-09T08:57:17.998Z,49.83
2018-08-09T08:58:18.001Z,49.5
2018-08-09T08:59:18.019Z,49.48
2018-08-09T09:00:18.019Z,49.45
2018-08-09T09:01:18.046Z,48.47
2018-08-09T09:02:18.037Z,48.38
2018-08-09T09:03:18.005Z,48.35
2018-08-09T09:04:18.095Z,47.79
2018-08-09T09:05:18.024Z,47.75
2018-08-09T09:06:18.028Z,47.41
2018-08-09T09:07:18.043Z,47.99
2018-08-09T09:08:18.011Z,48.17
2018-08-09T09:09:18.029Z,47.81
2018-08-09T09:10:18.044Z,47.69
2018-08-09T09:11:18.048Z,48.05
2018-08-09T09:12:18.014Z,47.66
2018-08-09T09:13:18.058Z,47.6
2018-08-09T09:14:18.029Z,47.6
2018-08-09T09:15:18.021Z,47.59
2018-08-09T09:16:18.052Z,47.28
2018-08-09T09:17:18.258Z,47.72
2018-08-09T09:18:18.098Z,47.46
2018-08-09T09:19:18.130Z,47.16
2018-08-09T09:20:18.062Z,47.41
2018-08-09T09:21:18.128Z,47.02
2018-08-09T09:22:18.029Z,47.09
2018-08-09T09:23:18.036Z,46.84
2018-08-09T09:24:18.142Z,46.76
2018-08-09T09:25:18.058Z,46.85
2018-08-09T09:26:18.124Z,47.03
2018-08-09T09:27:18.218Z,46.88
2018-08-09T09:28:18.054Z,46.51
2018-08-09T09:29:18.121Z,45.91
2018-08-09T09:30:18.051Z,45.85
2018-08-09T09:31:18.057Z,45.56
2018-08-09T09:32:18.043Z,45.5
2018-08-09T09:33:18.054Z,45.82
2018-08-09T09:34:18.039Z,45.7
2018-08-09T09:35:18.095Z,45.39
2018-08-09T09:36:18.061Z,45.38
2018-08-09T09:37:18.236Z,45
2018-08-09T09:38:18.092Z,45.12
2018-08-09T09:39:18.174Z,45.36
2018-08-09T09:40:18.077Z,44.63
2018-08-09T09:41:18.120Z,45.06
2018-08-09T09:42:18.078Z,44.81
2018-08-09T09:43:18.071Z,45.24
2018-08-09T09:44:18.190Z,45.05
2018-08-09T09:45:18.131Z,45.35
2018-08-09T09:46:18.119Z,45.26
2018-08-09T09:47:18.101Z,44.71
2018-08-09T09:48:18.209Z,44.36
2018-08-09T09:49:18.103Z,44.25
2018-08-09T09:50:18.120Z,44.57
2018-08-09T09:51:18.071Z,44
2018-08-09T09:52:18.274Z,44.28
2018-08-09T09:53:18.090Z,44
2018-08-09T09:54:18.090Z,43.98
2018-08-09T09:55:18.494Z,43.14
2018-08-09T09:56:18.110Z,43.1
2018-08-09T09:57:18.161Z,43.39
2018-08-09T09:58:18.132Z,42.32
2018-08-09T09:59:18.106Z,42.21
2018-08-09T10:00:18.420Z,42.42
2018-08-09T10:01:18.350Z,41.94
2018-08-09T10:02:18.127Z,41.69
2018-08-09T10:03:18.124Z,41.6
2018-08-09T10:04:18.096Z,41.82
2018-08-09T10:05:18.112Z,41.66
2018-08-09T10:06:18.181Z,41.38
2018-08-09T10:07:18.159Z,41.7
2018-08-09T10:08:18.186Z,41.42
2018-08-09T10:09:18.138Z,41.85
2018-08-09T10:10:18.157Z,41.22
2018-08-09T10:11:18.179Z,41.1
2018-08-09T10:12:18.201Z,40.99
2018-08-09T10:13:18.116Z,40.6
2018-08-09T10:14:18.126Z,40.23
2018-08-09T10:15:18.131Z,39.75
2018-08-09T10:16:18.133Z,39.92
2018-08-09T10:17:18.118Z,38.94
2018-08-09T10:18:18.136Z,39.95
2018-08-09T10:19:18.119Z,39.97
2018-08-09T10:20:18.156Z,39.77
2018-08-09T10:21:18.131Z,39.72
2018-08-09T10:22:18.126Z,39.19
2018-08-09T10:23:18.133Z,39.11
2018-08-09T10:24:18.129Z,39.41
2018-08-09T10:25:18.149Z,39.21
2018-08-09T10:26:18.161Z,39.81
2018-08-09T10:27:18.129Z,38.92
2018-08-09T10:28:18.139Z,38.9
2018-08-09T10:29:18.140Z,38.85
2018-08-09T10:30:18.159Z,38.57
2018-08-09T10:31:18.135Z,38.54
2018-08-09T10:32:18.152Z,39.06
2018-08-09T10:33:18.158Z,39.07
2018-08-09T10:34:18.140Z,38.73
2018-08-09T10:35:18.333Z,38.84
2018-08-09T10:36:18.332Z,38.79
2018-08-09T10:37:18.382Z,39.07
2018-08-09T10:38:18.140Z,38.46
2018-08-09T10:39:18.137Z,38.45
2018-08-09T10:40:18.177Z,38.42
2018-08-09T10:41:18.183Z,38.62
2018-08-09T10:42:18.192Z,38.65
2018-08-09T10:43:18.153Z,38.93
2018-08-09T10:44:18.189Z,39.04
2018-08-09T10:45:18.375Z,38.65
2018-08-09T10:46:18.524Z,38.46
2018-08-09T10:47:18.147Z,37.54
2018-08-09T10:48:18.152Z,37.91
2018-08-09T10:49:18.464Z,37.86
2018-08-09T10:50:18.171Z,36.82
2018-08-09T10:51:18.182Z,36.25
2018-08-09T10:52:18.169Z,36.51
2018-08-09T10:53:18.176Z,35.63
2018-08-09T10:54:18.703Z,36.27
2018-08-09T10:55:18.265Z,35.91
2018-08-09T10:56:18.193Z,35.65
2018-08-09T10:57:18.237Z,36.2
2018-08-09T10:58:18.194Z,36.54
2018-08-09T10:59:18.177Z,37.09
2018-08-09T11:00:18.199Z,36.74
2018-08-09T11:01:18.182Z,36.44
2018-08-09T11:02:18.182Z,36.72
2018-08-09T11:03:18.208Z,36.88
2018-08-09T11:04:18.296Z,36.84
2018-08-09T11:05:18.364Z,36.41
2018-08-09T11:06:18.259Z,36.48
2018-08-09T11:07:18.190Z,36.32
2018-08-09T11:08:18.432Z,36.75
2018-08-09T11:09:18.253Z,36.95
2018-08-09T11:10:18.202Z,36.82
2018-08-09T11:11:18.215Z,36.93
2018-08-09T11:12:18.361Z,36.62
2018-08-09T11:13:18.229Z,37.57
2018-08-09T11:14:18.185Z,37.23
2018-08-09T11:15:18.297Z,37.16
2018-08-09T11:16:18.245Z,37.18
2018-08-09T11:17:18.248Z,37.43
2018-08-09T11:18:18.325Z,37.07
2018-08-09T11:19:18.213Z,36.86
2018-08-09T11:20:18.229Z,36.61
2018-08-09T11:21:18.584Z,36.56
2018-08-09T11:22:18.294Z,35.89
2018-08-09T11:23:18.336Z,35.88
2018-08-09T11:24:18.276Z,36.31
2018-08-09T11:25:18.244Z,36.22
2018-08-09T11:26:18.300Z,36.75
2018-08-09T11:27:18.215Z,35.86
2018-08-09T11:28:18.214Z,34.41
2018-08-09T11:29:18.243Z,34.64
2018-08-09T11:30:18.291Z,35.21
2018-08-09T11:31:18.252Z,35.21
2018-08-09T11:32:18.207Z,35.21
2018-08-09T11:33:18.234Z,34.78
2018-08-09T11:34:18.282Z,35.23
2018-08-09T11:35:18.328Z,34.67
2018-08-09T11:36:18.226Z,34.94
2018-08-09T11:37:18.350Z,34.8
2018-08-09T11:38:18.248Z,34.78
2018-08-09T11:39:18.221Z,35.6
2018-08-09T11:40:18.228Z,35.4
2018-08-09T11:41:18.286Z,35.5
2018-08-09T11:42:18.243Z,35.57
2018-08-09T11:43:18.232Z,35.23
2018-08-09T11:44:18.230Z,34.99
2018-08-09T11:45:18.242Z,34.46
2018-08-09T11:46:18.257Z,34.34
2018-08-09T11:47:18.249Z,34.5
2018-08-09T11:48:18.246Z,34.78
2018-08-09T11:49:18.313Z,34.7
2018-08-09T11:50:18.232Z,35.02
2018-08-09T11:51:18.269Z,34.72
2018-08-09T11:52:18.675Z,34.43
2018-08-09T11:53:18.252Z,35.09
2018-08-09T11:54:18.241Z,34.65
2018-08-09T11:55:18.445Z,34.12
2018-08-09T11:56:18.315Z,34.62
2018-08-09T11:57:18.350Z,34.45
2018-08-09T11:58:18.278Z,34.17
2018-08-09T11:59:18.256Z,33.91
2018-08-09T12:00:18.395Z,33.58
2018-08-09T12:01:18.277Z,33.29
2018-08-09T12:02:18.310Z,33.85
2018-08-09T12:03:18.266Z,33.89
2018-08-09T12:04:18.327Z,33.42
2018-08-09T12:05:18.295Z,33.86
2018-08-09T12:06:18.336Z,33.76
2018-08-09T12:07:18.308Z,33.4
2018-08-09T12:08:18.314Z,33.53
2018-08-09T12:09:18.437Z,33.86
2018-08-09T12:10:18.371Z,32.89
2018-08-09T12:11:18.273Z,33.55
2018-08-09T12:12:18.401Z,33.62
2018-08-09T12:13:18.362Z,33.87
2018-08-09T12:14:18.282Z,33.73
2018-08-09T12:15:18.374Z,33.05
2018-08-09T12:16:18.287Z,32.75
2018-08-09T12:17:18.460Z,33.52
2018-08-09T12:18:18.394Z,32.92
2018-08-09T12:19:18.305Z,33.12
2018-08-09T12:20:18.366Z,32.6
2018-08-09T12:21:18.327Z,33.22
2018-08-09T12:22:18.366Z,32.74
2018-08-09T12:23:18.329Z,32.39
2018-08-09T12:24:18.347Z,32.79
2018-08-09T12:25:18.309Z,32.38
2018-08-09T12:26:18.298Z,32.84
2018-08-09T12:27:18.344Z,32.02
2018-08-09T12:28:18.359Z,32.35
2018-08-09T12:29:18.378Z,31.88
2018-08-09T12:30:18.501Z,31.98
2018-08-09T12:31:18.324Z,32.7
2018-08-09T12:32:18.332Z,32.74
2018-08-09T12:33:18.413Z,32.8
2018-08-09T12:34:18.411Z,32.9
2018-08-09T12:35:18.325Z,32.84
2018-08-09T12:36:18.350Z,32.92
2018-08-09T12:37:18.353Z,33.09
2018-08-09T12:38:18.326Z,32.92
2018-08-09T12:39:18.298Z,32.92
2018-08-09T12:40:18.330Z,33.11
2018-08-09T12:41:18.381Z,33.43
2018-08-09T12:42:18.347Z,33.23
2018-08-09T12:43:18.345Z,33.26
2018-08-09T12:44:18.374Z,33.35
2018-08-09T12:45:18.495Z,34.03
2018-08-09T12:46:18.398Z,33.37
2018-08-09T12:47:18.411Z,33.05
2018-08-09T12:48:18.606Z,33.27
2018-08-09T12:49:18.424Z,33.34
2018-08-09T12:50:18.355Z,33.77
2018-08-09T12:51:18.333Z,35.22
2018-08-09T12:52:18.333Z,36.21
2018-08-09T12:53:18.351Z,37.5
2018-08-09T12:54:18.355Z,37.96
2018-08-09T12:55:18.325Z,38.95
2018-08-09T12:56:18.330Z,39